createdAt,value
2023-10-30T00:02:19.215Z,1.65
2023-10-30T00:04:59.686Z,1.23
2023-10-30T00:07:29.032Z,1.40
2023-10-30T00:09:58.761Z,0.95
2023-10-30T00:12:26.800Z,1.20
2023-10-30T00:14:56.884Z,1.05
2023-10-30T00:17:25.287Z,1.25
2023-10-30T00:19:53.509Z,0.75
2023-10-30T00:22:22.680Z,1.10
2023-10-30T00:24:51.003Z,1.30
2023-10-30T00:27:20.284Z,0.93
2023-10-30T00:29:48.837Z,1.10
2023-10-30T00:32:17.783Z,1.73
2023-10-30T00:34:46.473Z,1.10
2023-10-30T00:37:14.832Z,1.23
2023-10-30T00:39:42.853Z,1.00
2023-10-30T00:42:11.921Z,1.20
2023-10-30T00:44:41.696Z,0.85
2023-10-30T00:47:10.142Z,0.90
2023-10-30T00:49:38.282Z,1.13
2023-10-30T00:52:07.466Z,1.02
2023-10-30T00:54:35.856Z,1.20
2023-10-30T00:57:04.162Z,0.93
2023-10-30T00:59:32.762Z,1.45
2023-10-30T01:02:03.128Z,1.20
2023-10-30T01:04:31.450Z,1.25
2023-10-30T01:06:59.978Z,1.10
2023-10-30T01:09:28.054Z,1.23
2023-10-30T01:11:57.816Z,1.70
2023-10-30T01:14:26.013Z,1.48
2023-10-30T01:16:54.010Z,1.15
2023-10-30T01:19:25.103Z,1.02
2023-10-30T01:21:53.203Z,1.27
2023-10-30T01:24:21.295Z,1.08
2023-10-30T01:26:50.424Z,1.00
2023-10-30T01:29:19.043Z,1.00
2023-10-30T01:31:47.074Z,1.30
2023-10-30T01:34:15.962Z,1.45
2023-10-30T01:36:46.097Z,1.30
2023-10-30T01:39:14.384Z,1.15
2023-10-30T01:41:42.562Z,0.95
2023-10-30T01:44:10.606Z,1.05
2023-10-30T01:46:39.225Z,1.10
2023-10-30T01:49:08.092Z,1.45
2023-10-30T01:51:38.229Z,1.30
2023-10-30T01:54:08.719Z,1.35
2023-10-30T01:56:37.423Z,1.00
2023-10-30T01:59:05.932Z,1.27
2023-10-30T02:01:38.914Z,1.95
2023-10-30T02:04:08.581Z,1.30
2023-10-30T02:06:36.583Z,1.08
2023-10-30T02:09:05.099Z,1.27
2023-10-30T02:11:34.579Z,1.33
2023-10-30T02:14:04.349Z,0.95
2023-10-30T02:16:32.686Z,0.77
2023-10-30T02:19:00.839Z,1.33
2023-10-30T02:21:28.889Z,1.30
2023-10-30T02:23:57.482Z,1.25
2023-10-30T02:26:26.987Z,1.20
2023-10-30T02:28:58.034Z,1.40
2023-10-30T02:33:55.172Z,1.05
2023-10-30T02:36:23.698Z,1.35
2023-10-30T02:38:51.572Z,1.25
2023-10-30T02:41:20.174Z,1.25
2023-10-30T02:43:50.009Z,1.60
2023-10-30T02:46:18.307Z,1.38
2023-10-30T02:48:46.140Z,0.90
2023-10-30T02:51:14.386Z,1.23
2023-10-30T02:53:42.677Z,1.67
2023-10-30T02:56:10.953Z,1.10
2023-10-30T02:58:39.101Z,1.45
2023-10-30T03:01:08.793Z,1.40
2023-10-30T03:03:37.199Z,1.17
2023-10-30T03:06:06.595Z,1.10
2023-10-30T03:08:34.615Z,1.73
2023-10-30T03:11:03.177Z,1.15
2023-10-30T03:13:31.314Z,1.80
2023-10-30T03:16:00.103Z,1.20
2023-10-30T03:18:30.407Z,1.30
2023-10-30T03:20:58.897Z,1.42
2023-10-30T03:23:26.799Z,1.30
2023-10-30T03:25:55.689Z,1.27
2023-10-30T03:28:23.974Z,1.35
2023-10-30T03:30:52.939Z,1.70
2023-10-30T03:33:22.104Z,1.70
2023-10-30T03:35:51.546Z,1.35
2023-10-30T03:38:19.757Z,1.07
2023-10-30T03:40:48.158Z,1.58
2023-10-30T03:43:17.309Z,1.52
2023-10-30T03:45:47.063Z,1.17
2023-10-30T03:48:16.301Z,1.75
2023-10-30T03:50:45.632Z,1.40
2023-10-30T03:53:14.916Z,1.50
2023-10-30T03:55:43.629Z,1.60
2023-10-30T03:58:11.594Z,1.38
2023-10-30T04:00:39.869Z,2.03
2023-10-30T04:03:08.328Z,1.58
2023-10-30T04:05:36.882Z,1.95
2023-10-30T04:08:05.212Z,1.45
2023-10-30T04:10:34.825Z,2.53
2023-10-30T04:13:03.049Z,1.55
2023-10-30T04:15:31.155Z,1.63
2023-10-30T04:18:01.595Z,1.55
2023-10-30T04:20:32.938Z,1.65
2023-10-30T04:23:01.500Z,1.85
2023-10-30T04:25:29.367Z,1.55
2023-10-30T04:27:59.620Z,2.30
2023-10-30T04:30:27.958Z,2.17
2023-10-30T04:32:56.448Z,2.58
2023-10-30T04:35:24.527Z,1.70
2023-10-30T04:37:52.707Z,1.92
2023-10-30T04:40:20.730Z,2.22
2023-10-30T04:42:49.190Z,1.52
2023-10-30T04:45:19.444Z,2.00
2023-10-30T04:47:47.605Z,1.38
2023-10-30T04:50:16.010Z,1.60
2023-10-30T04:52:44.809Z,1.85
2023-10-30T04:55:13.035Z,1.35
2023-10-30T04:57:41.037Z,2.40
2023-10-30T05:00:10.796Z,2.30
2023-10-30T05:02:40.417Z,3.28
2023-10-30T05:05:08.910Z,5.63
2023-10-30T05:07:38.961Z,7.68
2023-10-30T05:10:07.455Z,4.78
2023-10-30T05:12:36.796Z,10.80
2023-10-30T05:15:05.946Z,6.30
2023-10-30T05:17:33.975Z,3.65
2023-10-30T05:20:05.095Z,3.50
2023-10-30T05:22:35.115Z,9.18
2023-10-30T05:25:04.240Z,5.03
2023-10-30T05:27:32.787Z,4.90
2023-10-30T05:30:01.470Z,4.68
2023-10-30T05:32:29.682Z,5.25
2023-10-30T05:34:58.888Z,2.67
2023-10-30T05:37:28.682Z,2.13
2023-10-30T05:39:56.958Z,1.42
2023-10-30T05:42:25.265Z,4.20
2023-10-30T05:44:53.654Z,3.05
2023-10-30T05:47:21.889Z,3.97
2023-10-30T05:49:50.283Z,2.80
2023-10-30T05:52:18.704Z,7.15
2023-10-30T05:54:48.556Z,5.65
2023-10-30T05:57:16.741Z,2.97
2023-10-30T05:59:45.845Z,2.35
2023-10-30T06:02:15.523Z,2.55
2023-10-30T06:04:44.279Z,2.47
2023-10-30T06:07:12.414Z,2.30
2023-10-30T06:09:40.718Z,2.10
2023-10-30T06:12:10.843Z,1.85
2023-10-30T06:17:07.912Z,3.20
2023-10-30T06:19:37.679Z,2.95
2023-10-30T06:22:06.518Z,1.80
2023-10-30T06:24:34.997Z,1.88
2023-10-30T06:27:03.527Z,2.20
2023-10-30T06:29:33.635Z,2.10
2023-10-30T06:32:01.888Z,2.53
2023-10-30T06:34:30.053Z,6.45
2023-10-30T06:36:58.406Z,5.13
2023-10-30T06:39:26.750Z,3.78
2023-10-30T06:41:56.516Z,6.80
2023-10-30T06:44:25.669Z,11.20
2023-10-30T06:46:58.078Z,6.30
2023-10-30T06:49:26.545Z,3.70
2023-10-30T06:51:54.907Z,3.72
2023-10-30T06:54:23.144Z,4.53
2023-10-30T06:56:52.032Z,3.75
2023-10-30T06:59:20.138Z,4.25
2023-10-30T07:01:49.198Z,6.13
2023-10-30T07:04:19.059Z,4.35
2023-10-30T07:06:47.781Z,2.92
2023-10-30T07:09:16.332Z,2.03
2023-10-30T07:11:44.766Z,2.85
2023-10-30T07:14:13.044Z,2.13
2023-10-30T07:16:57.057Z,2.17
2023-10-30T07:19:31.349Z,2.88
2023-10-30T07:21:59.862Z,2.28
2023-10-30T07:24:28.359Z,2.05
2023-10-30T07:26:59.195Z,2.33
2023-10-30T07:31:56.835Z,2.13
2023-10-30T07:34:26.090Z,2.05
2023-10-30T07:36:55.864Z,2.50
2023-10-30T07:39:24.370Z,1.83
2023-10-30T07:41:53.503Z,2.10
2023-10-30T07:44:23.935Z,2.25
2023-10-30T07:46:52.628Z,1.90
2023-10-30T07:49:20.982Z,2.30
2023-10-30T07:51:48.997Z,2.42
2023-10-30T07:54:18.947Z,1.88
2023-10-30T07:56:47.013Z,2.08
2023-10-30T07:59:15.661Z,2.40
2023-10-30T08:01:46.828Z,2.05
2023-10-30T08:04:15.155Z,2.15
2023-10-30T08:06:44.395Z,1.77
2023-10-30T08:09:13.422Z,1.92
2023-10-30T08:11:44.551Z,1.98
2023-10-30T08:14:12.863Z,1.83
2023-10-30T08:16:41.124Z,1.65
2023-10-30T08:19:09.126Z,1.80
2023-10-30T08:21:37.217Z,2.42
2023-10-30T08:24:06.041Z,1.80
2023-10-30T08:26:34.291Z,2.20
2023-10-30T08:29:04.311Z,2.60
2023-10-30T08:31:32.649Z,1.88
2023-10-30T08:34:02.332Z,1.60
2023-10-30T08:36:30.661Z,2.25
2023-10-30T08:38:59.047Z,2.13
2023-10-30T08:41:28.088Z,2.15
2023-10-30T08:43:56.450Z,2.05
2023-10-30T08:46:26.015Z,2.45
2023-10-30T08:48:54.393Z,1.88
2023-10-30T08:51:22.433Z,2.05
2023-10-30T08:53:52.998Z,1.58
2023-10-30T08:56:21.485Z,1.40
2023-10-30T08:58:49.400Z,1.85
2023-10-30T09:01:17.601Z,1.23
2023-10-30T09:03:46.996Z,1.92
2023-10-30T09:06:15.417Z,2.33
2023-10-30T09:08:43.759Z,2.15
2023-10-30T09:11:11.842Z,1.90
2023-10-30T09:13:40.505Z,1.42
2023-10-30T09:16:10.003Z,1.48
2023-10-30T09:18:38.282Z,1.63
2023-10-30T09:21:08.405Z,1.80
2023-10-30T09:23:37.302Z,2.05
2023-10-30T09:26:05.916Z,1.65
2023-10-30T09:28:34.350Z,1.73
2023-10-30T09:31:02.601Z,1.83
2023-10-30T09:33:30.704Z,2.40
2023-10-30T09:35:59.136Z,1.27
2023-10-30T09:38:28.517Z,1.90
2023-10-30T09:41:02.413Z,1.42
2023-10-30T09:43:31.020Z,1.77
2023-10-30T09:46:01.905Z,2.00
2023-10-30T09:48:33.397Z,2.17
2023-10-30T09:51:02.163Z,4.10
2023-10-30T09:53:32.276Z,1.70
2023-10-30T09:58:30.236Z,2.08
2023-10-30T10:00:59.234Z,1.70
2023-10-30T10:03:27.690Z,4.35
2023-10-30T10:05:57.691Z,1.33
2023-10-30T10:08:27.455Z,1.55
2023-10-30T10:10:58.044Z,1.50
2023-10-30T10:13:27.037Z,1.42
2023-10-30T10:15:56.306Z,1.50
2023-10-30T10:18:26.537Z,1.35
2023-10-30T10:21:00.111Z,1.30
2023-10-30T10:23:31.719Z,0.90
2023-10-30T10:26:04.274Z,1.30
2023-10-30T10:28:33.653Z,1.67
2023-10-30T10:31:02.245Z,0.93
2023-10-30T10:33:31.194Z,1.50
2023-10-30T10:36:02.197Z,1.00
2023-10-30T10:38:30.595Z,2.72
2023-10-30T10:40:59.171Z,2.00
2023-10-30T10:43:30.556Z,1.05
2023-10-30T10:46:00.890Z,1.40
2023-10-30T10:48:30.159Z,0.90
2023-10-30T10:51:03.292Z,0.98
2023-10-30T10:53:32.842Z,1.00
2023-10-30T10:56:06.245Z,1.02
2023-10-30T10:58:43.375Z,1.20
2023-10-30T11:01:19.730Z,0.80
2023-10-30T11:03:50.047Z,0.90
2023-10-30T11:06:20.031Z,1.13
2023-10-30T11:08:56.921Z,0.88
2023-10-30T11:11:30.884Z,0.77
2023-10-30T11:14:13.708Z,0.88
2023-10-30T11:16:49.837Z,0.98
2023-10-30T11:19:21.966Z,0.90
2023-10-30T11:21:51.212Z,0.80
2023-10-30T11:24:38.707Z,0.50
2023-10-30T11:27:38.035Z,0.88
2023-10-30T11:30:12.894Z,0.98
2023-10-30T11:32:55.303Z,0.60
2023-10-30T11:35:24.220Z,0.52
2023-10-30T11:37:54.070Z,0.90
2023-10-30T11:40:22.932Z,0.88
2023-10-30T11:42:58.764Z,0.75
2023-10-30T11:45:30.022Z,0.90
2023-10-30T11:48:06.387Z,0.80
2023-10-30T11:50:36.593Z,0.70
2023-10-30T11:53:12.528Z,0.73
2023-10-30T11:55:41.772Z,0.63
2023-10-30T11:58:11.843Z,0.70
2023-10-30T12:03:12.068Z,1.33
2023-10-30T12:05:40.310Z,1.10
2023-10-30T12:08:11.218Z,0.60
2023-10-30T12:10:40.667Z,0.60
2023-10-30T12:13:10.393Z,0.70
2023-10-30T12:15:38.477Z,0.70
2023-10-30T12:18:08.288Z,0.68
2023-10-30T12:20:36.840Z,0.73
2023-10-30T12:23:05.487Z,0.60
2023-10-30T12:25:34.058Z,0.43
2023-10-30T12:28:02.973Z,0.70
2023-10-30T12:30:35.359Z,0.50
2023-10-30T12:33:04.246Z,0.60
2023-10-30T12:35:35.446Z,0.50
2023-10-30T12:38:14.890Z,0.70
2023-10-30T12:40:45.972Z,0.57
2023-10-30T12:43:14.714Z,0.60
2023-10-30T12:45:43.200Z,0.68
2023-10-30T12:48:11.332Z,0.60
2023-10-30T12:50:42.082Z,0.60
2023-10-30T12:53:12.516Z,0.60
2023-10-30T12:55:41.155Z,0.90
2023-10-30T12:58:09.140Z,0.57
2023-10-30T13:00:37.059Z,0.47
2023-10-30T13:03:05.323Z,0.47
2023-10-30T13:05:33.398Z,0.50
2023-10-30T13:08:03.067Z,0.47
2023-10-30T13:10:31.198Z,0.63
2023-10-30T13:12:59.190Z,0.80
2023-10-30T13:15:27.825Z,0.60
2023-10-30T13:17:56.069Z,0.50
2023-10-30T13:20:24.507Z,0.45
2023-10-30T13:22:52.695Z,0.47
2023-10-30T13:25:22.487Z,0.40
2023-10-30T13:27:50.469Z,0.50
2023-10-30T13:30:20.029Z,0.60
2023-10-30T13:32:48.030Z,0.47
2023-10-30T13:35:16.305Z,0.57
2023-10-30T13:37:44.550Z,0.32
2023-10-30T13:40:14.437Z,0.55
2023-10-30T13:42:44.177Z,0.60
2023-10-30T13:45:12.525Z,0.55
2023-10-30T13:47:40.752Z,0.50
2023-10-30T13:50:09.361Z,0.60
2023-10-30T13:52:37.360Z,0.70
2023-10-30T13:55:06.946Z,0.70
2023-10-30T13:57:35.225Z,1.05
2023-10-30T14:00:07.347Z,1.17
2023-10-30T14:02:35.352Z,0.88
2023-10-30T14:05:04.528Z,0.70
2023-10-30T14:07:33.325Z,0.73
2023-10-30T14:10:01.704Z,1.10
2023-10-30T14:12:30.659Z,0.90
2023-10-30T14:14:58.972Z,0.85
2023-10-30T14:17:28.759Z,0.57
2023-10-30T14:19:56.913Z,1.13
2023-10-30T14:22:25.135Z,0.50
2023-10-30T14:24:53.481Z,0.70
2023-10-30T14:27:21.935Z,0.80
2023-10-30T14:29:51.252Z,0.77
2023-10-30T14:32:19.873Z,0.90
2023-10-30T14:34:50.101Z,0.60
2023-10-30T14:39:47.032Z,0.80
2023-10-30T14:42:14.987Z,1.00
2023-10-30T14:44:43.097Z,0.68
2023-10-30T14:47:11.522Z,0.88
2023-10-30T14:49:39.484Z,1.10
2023-10-30T14:52:09.857Z,0.85
2023-10-30T14:54:37.983Z,0.75
2023-10-30T14:57:06.389Z,0.90
2023-10-30T14:59:34.689Z,0.90
2023-10-30T15:02:03.386Z,0.70
2023-10-30T15:04:31.628Z,0.80
2023-10-30T15:07:01.282Z,1.00
2023-10-30T15:09:31.082Z,0.98
2023-10-30T15:11:59.337Z,0.88
2023-10-30T15:14:29.801Z,1.10
2023-10-30T15:16:58.170Z,0.68
2023-10-30T15:19:28.075Z,0.90
2023-10-30T15:21:56.788Z,1.50
2023-10-30T15:24:25.937Z,1.08
2023-10-30T15:26:56.752Z,0.90
2023-10-30T15:29:25.197Z,0.70
2023-10-30T15:31:53.233Z,1.13
2023-10-30T15:34:21.529Z,1.40
2023-10-30T15:36:52.947Z,1.42
2023-10-30T15:39:22.183Z,0.95
2023-10-30T15:41:50.445Z,1.10
2023-10-30T15:44:20.127Z,1.42
2023-10-30T15:46:56.947Z,1.30
2023-10-30T15:49:27.043Z,1.40
2023-10-30T15:59:27.786Z,1.10
2023-10-30T16:04:24.819Z,0.90
2023-10-30T16:07:11.286Z,0.80
2023-10-30T16:09:39.691Z,21.42
2023-10-30T16:14:43.639Z,37.50
2023-10-30T16:19:43.445Z,33.30
2023-10-30T16:22:12.775Z,2.35
2023-10-30T16:24:40.844Z,2.50
2023-10-30T16:27:09.129Z,3.17
2023-10-30T16:29:37.289Z,2.40
2023-10-30T16:32:07.321Z,2.03
2023-10-30T16:34:35.680Z,2.38
2023-10-30T16:37:05.062Z,2.38
2023-10-30T16:39:33.259Z,5.43
2023-10-30T16:42:01.446Z,4.25
2023-10-30T16:44:30.214Z,5.85
2023-10-30T16:46:58.785Z,8.07
2023-10-30T16:49:28.411Z,6.55
2023-10-30T16:51:57.108Z,6.32
2023-10-30T16:54:25.226Z,13.25
2023-10-30T16:56:53.170Z,13.40
2023-10-30T16:59:21.252Z,16.92
2023-10-30T17:01:51.200Z,8.77
2023-10-30T17:04:19.363Z,3.72
2023-10-30T17:06:48.889Z,4.03
2023-10-30T17:09:17.161Z,3.80
2023-10-30T17:11:45.825Z,4.30
2023-10-30T17:14:15.528Z,9.20
2023-10-30T17:16:45.961Z,8.73
2023-10-30T17:19:16.298Z,7.03
2023-10-30T17:21:44.633Z,9.10
2023-10-30T17:24:14.320Z,15.48
2023-10-30T17:26:42.545Z,16.88
2023-10-30T17:29:11.062Z,16.17
2023-10-30T17:31:39.397Z,18.15
2023-10-30T17:34:08.022Z,17.52
2023-10-30T17:36:36.349Z,16.08
2023-10-30T17:39:07.914Z,12.88
2023-10-30T17:41:37.537Z,12.93
2023-10-30T17:44:06.645Z,12.05
2023-10-30T17:46:35.114Z,11.25
2023-10-30T17:49:03.454Z,10.50
2023-10-30T17:51:31.548Z,7.72
2023-10-30T17:53:59.750Z,3.45
2023-10-30T17:56:31.726Z,3.13
2023-10-30T17:59:01.296Z,3.33
2023-10-30T18:01:30.043Z,2.28
2023-10-30T18:03:58.331Z,1.95
2023-10-30T18:06:25.757Z,1.83
2023-10-30T18:08:54.283Z,1.95
2023-10-30T18:11:23.899Z,1.90
2023-10-30T18:13:52.248Z,1.90
2023-10-30T18:16:22.151Z,4.50
2023-10-30T18:18:50.512Z,3.97
2023-10-30T18:21:18.939Z,3.45
2023-10-30T18:23:47.226Z,2.35
2023-10-30T18:26:22.382Z,4.03
2023-10-30T18:28:50.506Z,1.50
2023-10-30T18:31:18.897Z,1.52
2023-10-30T18:33:49.184Z,1.50
2023-10-30T18:38:45.934Z,1.40
2023-10-30T18:41:14.070Z,2.13
2023-10-30T18:43:43.702Z,1.75
2023-10-30T18:46:17.178Z,3.38
2023-10-30T18:48:46.051Z,4.90
2023-10-30T18:51:15.758Z,4.20
2023-10-30T18:53:44.364Z,2.70
2023-10-30T18:56:14.378Z,2.42
2023-10-30T18:58:42.762Z,3.30
2023-10-30T19:01:11.807Z,2.70
2023-10-30T19:03:41.846Z,5.97
2023-10-30T19:08:40.906Z,1.90
2023-10-30T19:11:09.406Z,1.63
2023-10-30T19:13:38.420Z,1.80
2023-10-30T19:16:06.915Z,2.40
2023-10-30T19:18:35.278Z,3.10
2023-10-30T19:21:04.308Z,2.67
2023-10-30T19:23:32.464Z,2.60
2023-10-30T19:26:02.867Z,2.67
2023-10-30T19:28:30.853Z,1.88
2023-10-30T19:31:03.557Z,1.92
2023-10-30T19:33:32.464Z,2.95
2023-10-30T19:36:00.732Z,3.50
2023-10-30T19:38:29.332Z,3.03
2023-10-30T19:40:57.687Z,2.80
2023-10-30T19:43:28.447Z,5.63
2023-10-30T19:45:56.972Z,4.28
2023-10-30T19:48:27.148Z,4.47
2023-10-30T19:53:23.815Z,4.70
2023-10-30T19:55:52.092Z,4.93
2023-10-30T19:58:21.365Z,5.55
2023-10-30T20:00:51.229Z,4.97
2023-10-30T20:03:20.848Z,6.28
2023-10-30T20:05:48.963Z,9.52
2023-10-30T20:08:17.655Z,11.20
2023-10-30T20:10:47.292Z,10.93
2023-10-30T20:13:16.944Z,14.43
2023-10-30T20:15:45.282Z,10.18
2023-10-30T20:18:15.029Z,8.57
2023-10-30T20:20:43.396Z,10.32
2023-10-30T20:23:11.898Z,13.98
2023-10-30T20:25:39.972Z,9.02
2023-10-30T20:28:08.225Z,8.73
2023-10-30T20:30:36.604Z,6.63
2023-10-30T20:33:04.900Z,5.70
2023-10-30T20:35:34.661Z,6.35
2023-10-30T20:38:03.024Z,5.65
2023-10-30T20:40:31.498Z,5.72
2023-10-30T20:43:01.023Z,5.07
2023-10-30T20:45:29.426Z,5.00
2023-10-30T20:47:57.872Z,5.15
2023-10-30T20:50:26.179Z,5.70
2023-10-30T20:52:55.671Z,5.78
2023-10-30T20:55:23.745Z,7.78
2023-10-30T20:57:52.062Z,8.77
2023-10-30T21:00:20.993Z,8.13
2023-10-30T21:02:49.048Z,6.97
2023-10-30T21:05:18.267Z,7.80
2023-10-30T21:07:46.281Z,8.13
2023-10-30T21:10:15.910Z,8.93
2023-10-30T21:12:44.065Z,9.02
2023-10-30T21:15:12.816Z,9.15
2023-10-30T21:17:40.871Z,8.50
2023-10-30T21:20:09.895Z,8.82
2023-10-30T21:22:38.364Z,11.38
2023-10-30T21:25:07.249Z,11.02
2023-10-30T21:27:37.729Z,10.55
2023-10-30T21:30:07.232Z,9.45
2023-10-30T21:32:35.869Z,10.48
2023-10-30T21:35:05.785Z,9.48
2023-10-30T21:37:34.561Z,10.85
2023-10-30T21:40:03.084Z,10.70
2023-10-30T21:42:31.413Z,10.35
2023-10-30T21:45:00.959Z,9.32
2023-10-30T21:47:30.984Z,9.40
2023-10-30T21:50:01.274Z,9.35
2023-10-30T21:52:29.683Z,8.55
2023-10-30T21:54:58.006Z,9.23
2023-10-30T21:57:26.176Z,36.00
2023-10-30T21:59:54.527Z,16.25
2023-10-30T22:02:24.318Z,14.95
2023-10-30T22:04:52.959Z,11.93
2023-10-30T22:07:22.140Z,11.27
2023-10-30T22:09:50.246Z,11.07
2023-10-30T22:12:18.500Z,10.85
2023-10-30T22:14:46.773Z,38.10
2023-10-30T22:17:15.017Z,11.88
2023-10-30T22:19:45.766Z,10.13
2023-10-30T22:22:14.095Z,11.05
2023-10-30T22:24:41.947Z,10.35
2023-10-30T22:27:10.369Z,11.40
2023-10-30T22:29:38.542Z,10.48
2023-10-30T22:32:07.048Z,7.35
2023-10-30T22:34:35.025Z,6.57
2023-10-30T22:37:05.759Z,5.07
2023-10-30T22:39:33.856Z,5.50
2023-10-30T22:42:03.000Z,5.35
2023-10-30T22:44:31.448Z,5.03
2023-10-30T22:47:00.101Z,6.47
2023-10-30T22:49:28.154Z,6.70
2023-10-30T22:51:56.394Z,6.53
2023-10-30T22:54:26.353Z,6.00
2023-10-30T22:56:54.246Z,5.63
2023-10-30T22:59:22.252Z,7.47
2023-10-30T23:01:50.551Z,25.17
2023-10-30T23:04:18.743Z,24.35
2023-10-30T23:06:46.807Z,18.45
2023-10-30T23:09:15.569Z,10.82
2023-10-30T23:11:45.400Z,8.70
2023-10-30T23:14:13.709Z,9.23
2023-10-30T23:16:42.334Z,8.80
2023-10-30T23:19:10.707Z,7.35
2023-10-30T23:21:38.767Z,6.82
2023-10-30T23:24:07.883Z,6.55
2023-10-30T23:26:35.992Z,7.82
2023-10-30T23:29:05.869Z,8.02
2023-10-30T23:31:34.385Z,7.03
2023-10-30T23:34:03.534Z,7.10
2023-10-30T23:36:31.906Z,7.13
2023-10-30T23:39:00.029Z,6.88
2023-10-30T23:41:28.380Z,6.60
2023-10-30T23:43:56.484Z,5.95
2023-10-30T23:46:35.351Z,5.75
2023-10-30T23:49:07.344Z,5.63
2023-10-30T23:51:35.422Z,4.90
2023-10-30T23:54:03.807Z,4.40
2023-10-30T23:56:31.803Z,4.55
2023-10-30T23:59:00.596Z,4.65
